Terminal Aerodrome Forecast
Issued by NWS

Home | Current Version | Previous Version | Text Only | Print | Product List | Glossary On
Versions: 1 2 3 4 5 6 7 8 9 10 11 12 13 14
000
FTUS42 TJSJ 281725
TAFJPS
TAF
TJPS 281725Z 2818/2918 12010G18KT P6SM VCSH SCT025 SCT050
      TEMPO 2818/2820 5SM TSRA SCT025CB BKN040 BKN060
     FM282300 VRB06KT P6SM SCT025 SCT060
     FM291500 11012KT P6SM VCSH SCT025 BKN060
      AMD NOT SKED TIL 290300=

USA.gov is the U.S. government's official web portal to all federal, state and local government web resources and services.